createdAt,value
2022-11-24T00:01:21.855Z,2.33
2022-11-24T00:03:56.309Z,3.15
2022-11-24T00:06:25.286Z,2.97
2022-11-24T00:08:54.025Z,2.58
2022-11-24T00:11:23.944Z,2.40
2022-11-24T00:13:53.031Z,2.90
2022-11-24T00:16:23.828Z,2.92
2022-11-24T00:18:55.673Z,2.95
2022-11-24T00:21:24.610Z,3.03
2022-11-24T00:23:53.529Z,2.47
2022-11-24T00:26:23.851Z,2.70
2022-11-24T00:28:53.306Z,3.20
2022-11-24T00:31:23.116Z,2.67
2022-11-24T00:33:52.913Z,3.45
2022-11-24T00:36:24.477Z,2.85
2022-11-24T00:38:55.593Z,2.72
2022-11-24T00:41:24.591Z,3.05
2022-11-24T00:43:53.374Z,3.58
2022-11-24T00:46:22.510Z,3.42
2022-11-24T00:48:51.195Z,3.83
2022-11-24T00:51:26.511Z,2.67
2022-11-24T00:53:56.427Z,3.13
2022-11-24T00:56:25.362Z,3.30
2022-11-24T00:58:53.817Z,2.92
2022-11-24T01:01:23.780Z,3.28
2022-11-24T01:03:52.429Z,3.55
2022-11-24T01:06:22.401Z,3.17
2022-11-24T01:08:52.694Z,3.33
2022-11-24T01:11:22.517Z,3.55
2022-11-24T01:13:53.917Z,3.42
2022-11-24T01:16:25.681Z,3.75
2022-11-24T01:18:54.678Z,3.60
2022-11-24T01:21:23.391Z,3.15
2022-11-24T01:23:53.281Z,2.97
2022-11-24T01:26:23.083Z,3.50
2022-11-24T01:28:55.095Z,4.00
2022-11-24T01:31:23.905Z,3.20
2022-11-24T01:33:52.864Z,4.38
2022-11-24T01:36:21.915Z,3.58
2022-11-24T01:38:50.298Z,3.70
2022-11-24T01:41:22.241Z,3.50
2022-11-24T01:43:51.944Z,3.10
2022-11-24T01:46:25.257Z,3.42
2022-11-24T01:48:59.206Z,3.42
2022-11-24T01:51:30.543Z,3.70
2022-11-24T01:54:03.722Z,3.25
2022-11-24T01:56:36.668Z,3.42
2022-11-24T01:59:08.606Z,3.45
2022-11-24T02:01:37.248Z,3.72
2022-11-24T02:04:09.590Z,3.47
2022-11-24T02:06:39.226Z,4.40
2022-11-24T02:09:13.591Z,3.95
2022-11-24T02:11:44.919Z,3.97
2022-11-24T02:14:15.346Z,4.05
2022-11-24T02:16:45.421Z,3.03
2022-11-24T02:19:32.506Z,3.47
2022-11-24T02:22:01.406Z,2.80
2022-11-24T02:24:39.541Z,4.07
2022-11-24T02:27:10.933Z,3.55
2022-11-24T02:29:39.663Z,4.13
2022-11-24T02:32:09.767Z,3.25
2022-11-24T02:34:38.142Z,3.15
2022-11-24T02:37:06.431Z,2.90
2022-11-24T02:39:35.085Z,2.83
2022-11-24T02:42:06.308Z,1.55
2022-11-24T02:44:40.620Z,1.63
2022-11-24T02:47:10.456Z,1.92
2022-11-24T02:49:38.804Z,2.63
2022-11-24T02:52:07.596Z,2.13
2022-11-24T02:54:36.483Z,2.00
2022-11-24T02:57:05.543Z,2.78
2022-11-24T02:59:35.338Z,2.60
2022-11-24T03:02:03.785Z,2.55
2022-11-24T03:04:32.540Z,2.83
2022-11-24T03:07:01.399Z,2.83
2022-11-24T03:09:31.293Z,2.35
2022-11-24T03:11:59.720Z,2.35
2022-11-24T03:14:28.267Z,2.33
2022-11-24T03:16:57.889Z,2.20
2022-11-24T03:19:26.413Z,2.45
2022-11-24T03:21:54.719Z,3.08
2022-11-24T03:24:23.460Z,2.67
2022-11-24T03:26:51.883Z,2.45
2022-11-24T03:29:20.052Z,3.35
2022-11-24T03:31:48.446Z,2.85
2022-11-24T03:34:18.249Z,3.67
2022-11-24T03:36:46.736Z,3.17
2022-11-24T03:39:15.204Z,3.13
2022-11-24T03:41:43.653Z,2.75
2022-11-24T03:44:11.974Z,2.38
2022-11-24T03:46:40.302Z,1.73
2022-11-24T03:49:08.917Z,1.90
2022-11-24T03:51:38.655Z,2.53
2022-11-24T03:54:07.331Z,1.73
2022-11-24T03:56:35.579Z,1.42
2022-11-24T03:59:04.056Z,1.15
2022-11-24T04:01:32.405Z,0.90
2022-11-24T04:04:00.936Z,1.70
2022-11-24T04:06:29.347Z,1.33
2022-11-24T04:08:59.108Z,1.30
2022-11-24T04:11:44.966Z,1.25
2022-11-24T04:14:13.977Z,1.30
2022-11-24T04:16:42.398Z,1.10
2022-11-24T04:19:10.799Z,1.00
2022-11-24T04:21:39.301Z,0.90
2022-11-24T04:24:09.276Z,0.93
2022-11-24T04:26:38.256Z,0.90
2022-11-24T04:29:06.636Z,0.80
2022-11-24T04:31:35.222Z,1.00
2022-11-24T04:34:03.605Z,0.60
2022-11-24T04:36:31.915Z,0.70
2022-11-24T04:39:23.809Z,1.45
2022-11-24T04:41:50.005Z,1.10
2022-11-24T04:44:18.532Z,0.80
2022-11-24T04:46:47.041Z,1.30
2022-11-24T04:49:15.418Z,0.90
2022-11-24T04:51:43.835Z,1.05
2022-11-24T04:54:13.818Z,1.10
2022-11-24T04:56:43.862Z,0.80
2022-11-24T04:59:16.218Z,0.90
2022-11-24T05:01:44.962Z,0.90
2022-11-24T05:04:14.281Z,1.33
2022-11-24T05:06:43.109Z,1.15
2022-11-24T05:09:18.828Z,0.80
2022-11-24T05:11:47.149Z,0.80
2022-11-24T05:14:16.920Z,1.08
2022-11-24T05:16:45.195Z,0.82
2022-11-24T05:19:14.201Z,0.65
2022-11-24T05:21:43.319Z,0.93
2022-11-24T05:24:12.230Z,1.00
2022-11-24T05:26:40.697Z,0.82
2022-11-24T05:29:09.189Z,1.00
2022-11-24T05:31:39.157Z,0.90
2022-11-24T05:34:07.871Z,0.70
2022-11-24T05:36:54.358Z,0.77
2022-11-24T05:39:22.984Z,0.90
2022-11-24T05:41:51.335Z,1.20
2022-11-24T05:44:19.709Z,1.05
2022-11-24T05:46:49.418Z,0.90
2022-11-24T05:49:17.813Z,1.17
2022-11-24T05:51:46.219Z,1.13
2022-11-24T05:54:14.827Z,0.98
2022-11-24T05:56:43.269Z,1.33
2022-11-24T05:59:11.609Z,2.15
2022-11-24T06:01:40.191Z,1.55
2022-11-24T06:04:10.041Z,1.60
2022-11-24T06:06:38.490Z,1.52
2022-11-24T06:09:06.915Z,1.73
2022-11-24T06:11:35.398Z,1.70
2022-11-24T06:14:09.690Z,1.65
2022-11-24T06:16:43.505Z,2.45
2022-11-24T06:19:13.785Z,2.22
2022-11-24T06:21:42.481Z,2.10
2022-11-24T06:24:10.701Z,2.13
2022-11-24T06:26:39.055Z,1.90
2022-11-24T06:29:07.765Z,2.10
2022-11-24T06:31:36.536Z,2.00
2022-11-24T06:34:07.853Z,2.22
2022-11-24T06:36:37.771Z,1.65
2022-11-24T06:39:07.267Z,1.83
2022-11-24T06:41:35.689Z,2.30
2022-11-24T06:44:04.947Z,1.50
2022-11-24T06:46:33.481Z,2.13
2022-11-24T06:49:02.379Z,2.67
2022-11-24T06:51:30.742Z,1.85
2022-11-24T06:54:00.434Z,2.28
2022-11-24T06:56:28.931Z,2.15
2022-11-24T06:58:57.743Z,2.20
2022-11-24T07:01:28.025Z,2.40
2022-11-24T07:03:57.993Z,1.88
2022-11-24T07:06:28.436Z,2.10
2022-11-24T07:08:56.872Z,1.65
2022-11-24T07:11:26.616Z,2.42
2022-11-24T07:13:59.743Z,1.85
2022-11-24T07:16:29.298Z,1.80
2022-11-24T07:18:57.724Z,1.92
2022-11-24T07:21:26.959Z,1.90
2022-11-24T07:23:57.257Z,2.17
2022-11-24T07:26:27.737Z,1.50
2022-11-24T07:28:56.185Z,2.05
2022-11-24T07:31:26.115Z,1.60
2022-11-24T07:33:56.269Z,2.10
2022-11-24T07:36:25.019Z,1.60
2022-11-24T07:38:53.410Z,1.48
2022-11-24T07:41:22.148Z,1.90
2022-11-24T07:43:52.260Z,1.52
2022-11-24T07:46:21.454Z,1.50
2022-11-24T07:48:49.986Z,1.40
2022-11-24T07:51:18.483Z,1.50
2022-11-24T07:53:47.321Z,1.67
2022-11-24T07:56:15.828Z,1.63
2022-11-24T07:58:49.750Z,1.27
2022-11-24T08:01:22.433Z,1.58
2022-11-24T08:03:51.011Z,1.88
2022-11-24T08:06:26.185Z,1.92
2022-11-24T08:08:57.581Z,1.23
2022-11-24T08:11:26.659Z,1.65
2022-11-24T08:13:55.482Z,2.00
2022-11-24T08:16:25.327Z,1.83
2022-11-24T08:18:55.482Z,1.77
2022-11-24T08:21:24.470Z,1.77
2022-11-24T08:23:56.148Z,2.00
2022-11-24T08:26:25.586Z,1.80
2022-11-24T08:28:56.489Z,1.50
2022-11-24T08:31:32.808Z,1.92
2022-11-24T08:34:02.092Z,2.10
2022-11-24T08:36:30.607Z,2.65
2022-11-24T08:39:00.168Z,2.20
2022-11-24T08:41:29.811Z,1.98
2022-11-24T08:43:58.451Z,2.13
2022-11-24T08:46:32.249Z,2.03
2022-11-24T08:49:00.918Z,1.90
2022-11-24T08:51:29.477Z,1.75
2022-11-24T08:53:58.687Z,1.50
2022-11-24T08:56:28.637Z,1.70
2022-11-24T08:58:58.239Z,1.70
2022-11-24T09:01:28.810Z,1.60
2022-11-24T09:03:57.356Z,1.98
2022-11-24T09:06:27.867Z,2.17
2022-11-24T09:08:56.576Z,1.80
2022-11-24T09:11:25.933Z,1.65
2022-11-24T09:13:55.169Z,1.90
2022-11-24T09:16:26.009Z,2.10
2022-11-24T09:19:00.616Z,2.25
2022-11-24T09:21:29.661Z,1.95
2022-11-24T09:23:58.381Z,1.80
2022-11-24T09:26:28.348Z,2.17
2022-11-24T09:28:57.650Z,1.85
2022-11-24T09:31:28.365Z,2.38
2022-11-24T09:33:59.455Z,2.17
2022-11-24T09:36:28.335Z,2.22
2022-11-24T09:38:57.033Z,2.03
2022-11-24T09:41:40.354Z,2.03
2022-11-24T09:44:46.051Z,1.77
2022-11-24T09:47:22.686Z,2.60
2022-11-24T09:49:59.222Z,1.88
2022-11-24T09:52:40.110Z,1.67
2022-11-24T09:55:41.168Z,1.70
2022-11-24T09:58:32.445Z,2.15
2022-11-24T10:01:01.226Z,2.03
2022-11-24T10:03:33.977Z,1.80
2022-11-24T10:06:11.922Z,2.15
2022-11-24T10:08:59.975Z,1.77
2022-11-24T10:11:36.221Z,2.05
2022-11-24T10:14:34.903Z,1.73
2022-11-24T10:17:14.218Z,2.08
2022-11-24T10:19:48.669Z,1.60
2022-11-24T10:22:35.604Z,1.70
2022-11-24T10:25:17.416Z,1.92
2022-11-24T10:27:48.084Z,2.10
2022-11-24T10:30:18.779Z,2.03
2022-11-24T10:32:49.277Z,2.30
2022-11-24T10:35:20.028Z,2.60
2022-11-24T10:38:01.932Z,2.13
2022-11-24T10:43:28.311Z,2.38
2022-11-24T10:46:00.829Z,2.00
2022-11-24T10:48:32.710Z,2.30
2022-11-24T10:51:18.601Z,2.08
2022-11-24T10:53:49.936Z,2.83
2022-11-24T10:56:19.484Z,2.22
2022-11-24T10:58:48.043Z,2.90
2022-11-24T11:01:33.417Z,2.47
2022-11-24T11:04:02.032Z,2.20
2022-11-24T11:06:31.607Z,2.95
2022-11-24T11:09:19.387Z,1.85
2022-11-24T11:11:48.904Z,2.38
2022-11-24T11:14:31.263Z,2.50
2022-11-24T11:17:00.100Z,2.42
2022-11-24T11:20:01.603Z,3.10
2022-11-24T11:22:30.301Z,2.30
2022-11-24T11:25:19.322Z,2.15
2022-11-24T11:27:48.456Z,2.38
2022-11-24T11:36:13.472Z,1.98
2022-11-24T11:38:42.834Z,2.10
2022-11-24T11:41:20.509Z,2.35
2022-11-24T11:43:53.369Z,2.20
2022-11-24T11:46:22.483Z,2.30
2022-11-24T11:48:50.953Z,2.85
2022-11-24T11:51:36.468Z,2.25
2022-11-24T11:54:10.671Z,2.05
2022-11-24T11:56:45.205Z,1.88
2022-11-24T11:59:40.112Z,2.20
2022-11-24T12:02:44.776Z,1.88
2022-11-24T12:05:24.289Z,2.10
2022-11-24T12:08:16.013Z,2.05
2022-11-24T12:10:58.777Z,2.20
2022-11-24T12:13:44.661Z,2.08
2022-11-24T12:16:25.247Z,2.50
2022-11-24T12:19:08.665Z,2.55
2022-11-24T12:21:44.716Z,2.05
2022-11-24T12:24:20.702Z,2.35
2022-11-24T12:26:53.693Z,2.45
2022-11-24T12:29:53.864Z,2.35
2022-11-24T12:32:41.203Z,2.53
2022-11-24T12:35:20.544Z,2.13
2022-11-24T12:37:58.871Z,2.30
2022-11-24T12:40:46.849Z,2.53
2022-11-24T12:43:21.813Z,2.50
2022-11-24T12:45:57.960Z,2.30
2022-11-24T12:48:36.888Z,2.13
2022-11-24T12:51:07.633Z,2.35
2022-11-24T12:53:37.438Z,2.38
2022-11-24T12:56:08.495Z,2.55
2022-11-24T12:58:45.781Z,2.58
2022-11-24T13:01:24.647Z,2.92
2022-11-24T13:04:04.142Z,3.00
2022-11-24T13:06:48.801Z,2.25
2022-11-24T13:09:17.968Z,2.20
2022-11-24T13:11:47.293Z,2.80
2022-11-24T13:14:24.311Z,2.60
2022-11-24T13:17:28.778Z,2.90
2022-11-24T13:19:48.163Z,3.08
2022-11-24T13:22:19.520Z,2.78
2022-11-24T13:25:05.668Z,2.50
2022-11-24T13:27:46.601Z,2.70
2022-11-24T13:30:52.136Z,3.40
2022-11-24T13:33:34.037Z,2.45
2022-11-24T13:36:33.279Z,3.15
2022-11-24T13:39:02.855Z,3.03
2022-11-24T13:42:08.483Z,2.42
2022-11-24T13:44:53.600Z,2.72
2022-11-24T13:47:41.196Z,2.30
2022-11-24T13:50:16.062Z,2.70
2022-11-24T13:52:48.434Z,2.28
2022-11-24T13:55:30.584Z,3.10
2022-11-24T13:58:03.596Z,2.30
2022-11-24T14:00:35.156Z,2.20
2022-11-24T14:03:07.540Z,3.13
2022-11-24T14:05:41.343Z,2.70
2022-11-24T14:08:20.900Z,2.30
2022-11-24T14:10:49.483Z,2.95
2022-11-24T14:13:27.901Z,2.70
2022-11-24T14:16:05.277Z,2.50
2022-11-24T14:18:34.386Z,2.47
2022-11-24T14:21:25.440Z,2.42
2022-11-24T14:23:56.246Z,2.85
2022-11-24T14:26:28.044Z,2.03
2022-11-24T14:29:03.811Z,2.67
2022-11-24T14:31:32.293Z,2.38
2022-11-24T14:34:18.249Z,2.47
2022-11-24T14:36:48.024Z,2.40
2022-11-24T14:39:18.488Z,2.60
2022-11-24T14:41:53.439Z,4.60
2022-11-24T14:44:25.154Z,2.60
2022-11-24T14:47:03.070Z,3.05
2022-11-24T14:49:32.903Z,2.83
2022-11-24T14:52:05.677Z,3.28
2022-11-24T14:54:34.244Z,3.35
2022-11-24T14:57:05.379Z,2.35
2022-11-24T14:59:38.253Z,2.58
2022-11-24T15:02:40.758Z,2.72
2022-11-24T15:05:09.457Z,2.70
2022-11-24T15:07:42.544Z,2.83
2022-11-24T15:10:21.749Z,2.85
2022-11-24T15:12:54.598Z,2.63
2022-11-24T15:15:26.651Z,2.80
2022-11-24T15:17:59.002Z,2.22
2022-11-24T15:20:30.366Z,2.47
2022-11-24T15:23:22.860Z,3.10
2022-11-24T15:25:52.552Z,3.03
2022-11-24T15:28:24.828Z,2.20
2022-11-24T15:30:54.845Z,3.33
2022-11-24T15:33:24.225Z,2.55
2022-11-24T15:35:52.652Z,2.40
2022-11-24T15:38:22.706Z,3.15
2022-11-24T15:40:53.121Z,2.47
2022-11-24T15:43:29.562Z,2.53
2022-11-24T15:45:58.320Z,3.08
2022-11-24T15:48:26.729Z,2.90
2022-11-24T15:50:55.577Z,2.58
2022-11-24T15:53:29.777Z,2.90
2022-11-24T15:55:58.828Z,3.38
2022-11-24T15:58:27.381Z,2.72
2022-11-24T16:00:55.909Z,2.97
2022-11-24T16:03:46.329Z,3.05
2022-11-24T16:06:23.385Z,2.70
2022-11-24T16:08:54.668Z,2.95
2022-11-24T16:11:23.462Z,2.28
2022-11-24T16:13:53.761Z,2.83
2022-11-24T16:16:24.784Z,2.80
2022-11-24T16:18:53.453Z,2.83
2022-11-24T16:21:21.943Z,3.33
2022-11-24T16:23:50.399Z,3.17
2022-11-24T16:26:20.190Z,3.35
2022-11-24T16:28:48.459Z,2.25
2022-11-24T16:31:18.012Z,3.92
2022-11-24T16:33:46.759Z,2.70
2022-11-24T16:36:15.481Z,3.55
2022-11-24T16:38:43.783Z,2.88
2022-11-24T16:41:12.621Z,3.45
2022-11-24T16:43:42.524Z,4.10
2022-11-24T16:46:19.337Z,2.90
2022-11-24T16:48:48.762Z,2.65
2022-11-24T16:51:18.578Z,2.83
2022-11-24T16:53:46.986Z,3.17
2022-11-24T16:56:16.510Z,2.38
2022-11-24T16:58:46.315Z,2.90
2022-11-24T17:01:15.788Z,2.58
2022-11-24T17:03:44.158Z,2.95
2022-11-24T17:06:15.697Z,2.75
2022-11-24T17:08:45.533Z,2.65
2022-11-24T17:11:15.869Z,2.42
2022-11-24T17:13:47.063Z,3.00
2022-11-24T17:16:17.508Z,3.00
2022-11-24T17:18:46.244Z,3.45
2022-11-24T17:21:15.970Z,2.53
2022-11-24T17:23:44.638Z,3.22
2022-11-24T17:26:14.564Z,2.53
2022-11-24T17:28:43.548Z,3.22
2022-11-24T17:31:19.165Z,2.88
2022-11-24T17:33:47.558Z,3.47
2022-11-24T17:36:16.046Z,3.20
2022-11-24T17:38:44.449Z,2.17
2022-11-24T17:41:12.766Z,2.20
2022-11-24T17:43:41.084Z,2.75
2022-11-24T17:46:12.324Z,2.30
2022-11-24T17:48:40.880Z,3.03
2022-11-24T17:51:12.842Z,2.47
2022-11-24T17:53:42.407Z,2.67
2022-11-24T17:56:14.317Z,2.97
2022-11-24T17:58:43.633Z,2.63
2022-11-24T18:01:14.048Z,2.30
2022-11-24T18:03:42.870Z,2.70
2022-11-24T18:06:12.581Z,2.70
2022-11-24T18:08:42.875Z,2.72
2022-11-24T18:11:12.911Z,2.90
2022-11-24T18:13:56.489Z,2.90
2022-11-24T18:16:30.527Z,2.80
2022-11-24T18:19:09.890Z,3.80
2022-11-24T18:21:39.119Z,3.15
2022-11-24T18:24:08.042Z,2.95
2022-11-24T18:26:36.439Z,2.88
2022-11-24T18:29:05.669Z,2.95
2022-11-24T18:31:36.126Z,2.53
2022-11-24T18:34:05.826Z,2.70
2022-11-24T18:36:35.056Z,2.72
2022-11-24T18:39:04.173Z,3.38
2022-11-24T18:41:32.941Z,3.55
2022-11-24T18:44:02.512Z,3.85
2022-11-24T18:46:31.043Z,2.90
2022-11-24T18:49:00.924Z,3.42
2022-11-24T18:51:29.164Z,3.17
2022-11-24T18:53:58.301Z,3.10
2022-11-24T18:56:27.058Z,3.72
2022-11-24T18:58:56.335Z,3.22
2022-11-24T19:01:27.012Z,2.92
2022-11-24T19:03:57.529Z,2.47
2022-11-24T19:06:32.317Z,2.92
2022-11-24T19:09:02.236Z,2.60
2022-11-24T19:11:32.639Z,3.13
2022-11-24T19:14:01.742Z,3.38
2022-11-24T19:16:30.710Z,3.17
2022-11-24T19:19:00.446Z,3.00
2022-11-24T19:21:32.580Z,2.25
2022-11-24T19:24:04.892Z,2.55
2022-11-24T19:26:34.851Z,2.85
2022-11-24T19:29:03.589Z,2.95
2022-11-24T19:31:32.170Z,2.85
2022-11-24T19:34:00.917Z,3.00
2022-11-24T19:36:30.688Z,2.50
2022-11-24T19:38:59.645Z,3.53
2022-11-24T19:41:30.295Z,2.88
2022-11-24T19:43:59.072Z,2.67
2022-11-24T19:46:29.566Z,2.60
2022-11-24T19:49:00.807Z,2.53
2022-11-24T19:51:32.603Z,2.92
2022-11-24T19:54:01.326Z,2.97
2022-11-24T19:56:32.133Z,3.00
2022-11-24T19:59:00.485Z,3.03
2022-11-24T20:01:30.356Z,2.97
2022-11-24T20:04:00.109Z,2.40
2022-11-24T20:06:31.182Z,2.80
2022-11-24T20:09:00.522Z,2.70
2022-11-24T20:11:29.647Z,3.17
2022-11-24T20:13:58.784Z,2.63
2022-11-24T20:16:30.007Z,2.88
2022-11-24T20:19:00.135Z,2.88
2022-11-24T20:21:31.957Z,3.55
2022-11-24T20:24:02.540Z,2.65
2022-11-24T20:26:32.562Z,2.88
2022-11-24T20:29:01.268Z,2.97
2022-11-24T20:31:31.392Z,2.30
2022-11-24T20:34:00.964Z,2.90
2022-11-24T20:36:32.274Z,3.28
2022-11-24T20:39:01.898Z,3.17
2022-11-24T20:41:33.719Z,2.95
2022-11-24T20:44:03.889Z,3.70
2022-11-24T20:46:34.135Z,2.38
2022-11-24T20:49:03.909Z,2.95
2022-11-24T20:51:35.450Z,2.75
2022-11-24T20:54:05.900Z,2.53
2022-11-24T20:56:36.591Z,2.53
2022-11-24T20:59:05.610Z,3.25
2022-11-24T21:01:35.292Z,3.25
2022-11-24T21:04:04.739Z,3.03
2022-11-24T21:06:34.435Z,2.63
2022-11-24T21:09:04.194Z,2.40
2022-11-24T21:11:33.252Z,2.20
2022-11-24T21:14:02.221Z,3.05
2022-11-24T21:16:32.683Z,2.85
2022-11-24T21:19:02.475Z,3.20
2022-11-24T21:21:35.327Z,2.60
2022-11-24T21:24:04.947Z,2.42
2022-11-24T21:26:36.774Z,3.47
2022-11-24T21:29:05.348Z,2.78
2022-11-24T21:31:36.599Z,2.58
2022-11-24T21:34:05.537Z,2.55
2022-11-24T21:36:37.923Z,3.25
2022-11-24T21:39:06.409Z,3.33
2022-11-24T21:41:35.364Z,2.38
2022-11-24T21:44:03.967Z,2.97
2022-11-24T21:46:40.421Z,2.90
2022-11-24T21:49:10.763Z,2.97
2022-11-24T21:51:40.367Z,2.97
2022-11-24T21:54:08.940Z,2.67
2022-11-24T21:56:37.411Z,2.80
2022-11-24T21:59:05.917Z,2.63
2022-11-24T22:01:34.425Z,2.15
2022-11-24T22:04:02.883Z,2.60
2022-11-24T22:06:32.084Z,2.80
2022-11-24T22:09:02.017Z,2.50
2022-11-24T22:11:30.478Z,3.22
2022-11-24T22:13:58.857Z,3.80
2022-11-24T22:16:27.445Z,2.33
2022-11-24T22:18:56.080Z,2.72
2022-11-24T22:21:30.073Z,2.70
2022-11-24T22:23:58.692Z,2.75
2022-11-24T22:26:29.262Z,2.88
2022-11-24T22:28:58.801Z,3.45
2022-11-24T22:31:28.563Z,2.72
2022-11-24T22:33:57.576Z,3.05
2022-11-24T22:36:27.595Z,2.70
2022-11-24T22:38:56.846Z,2.50
2022-11-24T22:41:27.021Z,2.80
2022-11-24T22:43:55.587Z,2.25
2022-11-24T22:46:25.562Z,3.13
2022-11-24T22:48:55.420Z,2.85
2022-11-24T22:51:26.383Z,2.33
2022-11-24T22:53:56.571Z,3.25
2022-11-24T22:56:25.397Z,3.17
2022-11-24T22:58:55.385Z,3.55
2022-11-24T23:01:25.442Z,2.80
2022-11-24T23:03:54.728Z,2.50
2022-11-24T23:06:24.532Z,2.65
2022-11-24T23:08:53.371Z,2.45
2022-11-24T23:11:27.340Z,2.72
2022-11-24T23:14:01.433Z,2.70
2022-11-24T23:16:30.168Z,2.53
2022-11-24T23:18:58.994Z,2.33
2022-11-24T23:21:29.565Z,3.50
2022-11-24T23:23:59.084Z,3.03
2022-11-24T23:26:29.716Z,2.55
2022-11-24T23:28:58.021Z,3.22
2022-11-24T23:31:29.080Z,2.90
2022-11-24T23:33:58.275Z,2.58
2022-11-24T23:36:26.980Z,2.83
2022-11-24T23:38:55.387Z,3.03
2022-11-24T23:41:25.831Z,2.40
2022-11-24T23:43:54.052Z,2.70
2022-11-24T23:46:23.552Z,2.85
2022-11-24T23:48:54.924Z,3.22
2022-11-24T23:51:24.677Z,3.13
2022-11-24T23:53:53.667Z,2.78
2022-11-24T23:56:23.690Z,2.90
2022-11-24T23:58:52.294Z,2.97
